Time;durP1;ratioP1;P1;durP2;ratioP2;P2;SDS_P1;SDS_P2;PMS_P1;PMS_P2;Temp;Humidity;BMP_temperature;BMP_pressure;BME280_temperature;BME280_humidity;BME280_pressure;Samples;Min_cycle;Max_cycle;Signal;HPM_P1;HPM_P2
2022/05/09 00:01:45;;;;;;;;;;;;;;;20.15;44.47;101469.98;104780;1305;62002;-83
2022/05/09 00:04:25;;;;;;;;;;;;;;;20.15;44.53;101472.13;104827;1305;62206;-83
2022/05/09 00:06:53;;;;;;;;;;;;;;;20.15;44.25;101477.67;104706;1305;72897;-85
2022/05/09 00:09:25;;;;;;;;;;;;;;;20.15;44.59;101477.32;104788;1305;76714;-82
2022/05/09 00:11:59;;;;;;;;;;;;;;;20.15;44.44;101476.41;104807;1305;62085;-79
2022/05/09 00:14:49;;;;;;;;;;;;;;;20.15;44.25;101478.40;104797;1305;62151;-82
2022/05/09 00:17:23;;;;;;;;;;;;;;;20.14;44.55;101479.14;104792;1305;72925;-82
2022/05/09 00:20:11;;;;;;;;;;;;;;;20.14;44.56;101476.28;104721;1299;75740;-81
2022/05/09 00:22:51;;;;;;;;;;;;;;;20.14;44.37;101475.38;105310;1299;61983;-84
2022/05/09 00:25:37;;;;;;;;;;;;;;;;;;;;;
2022/05/09 00:28:13;;;;;;;;;;;;;;;;;;;;;
2022/05/09 00:30:55;;;;;;;;;;;;;;;20.14;44.40;101479.52;105377;1300;76215;-79
2022/05/09 00:33:21;;;;;;;;;;;;;;;20.14;44.41;101477.04;105390;1299;61925;-83
2022/05/09 00:35:52;;;;;;;;;;;;;;;20.14;44.40;101480.42;105331;1299;62130;-83
2022/05/09 00:38:32;;;;;;;;;;;;;;;20.14;44.49;101483.66;105321;1299;71975;-85
2022/05/09 00:41:37;;;;;;;;;;;;;;;20.13;44.55;101482.77;105385;1299;75569;-86
2022/05/09 00:44:09;;;;;;;;;;;;;;;20.13;44.50;101484.56;105423;1299;61987;-83
2022/05/09 00:46:51;;;;;;;;;;;;;;;20.13;44.42;101487.24;105286;1299;62239;-84
2022/05/09 00:49:29;;;;;;;;;;;;;;;20.12;44.49;101485.67;105415;1299;73675;-83
2022/05/09 00:52:06;;;;;;;;;;;;;;;20.12;44.60;101485.51;105345;1299;75579;-85
2022/05/09 00:54:46;;;;;;;;;;;;;;;20.12;44.64;101484.44;105392;1299;61814;-83
2022/05/09 00:57:17;;;;;;;;;;;;;;;20.12;44.51;101486.58;105397;1297;62090;-87
2022/05/09 01:00:07;;;;;;;;;;;;;;;20.12;44.35;101486.58;105302;1299;74275;-84
2022/05/09 01:02:47;;;;;;;;;;;;;;;20.12;44.54;101486.08;105349;1299;75537;-86
2022/05/09 01:05:50;;;;;;;;;;;;;;;20.12;44.43;101486.41;105335;1299;61973;-86
2022/05/09 01:08:22;;;;;;;;;;;;;;;20.12;44.56;101488.39;105268;1300;62219;-85
2022/05/09 01:10:56;;;;;;;;;;;;;;;20.12;44.51;101485.71;105385;1297;73864;-83
2022/05/09 01:13:37;;;;;;;;;;;;;;;20.12;44.43;101486.61;105211;1300;75614;-79
2022/05/09 01:16:11;;;;;;;;;;;;;;;20.12;44.42;101481.79;105371;1299;62067;-82
2022/05/09 01:18:53;;;;;;;;;;;;;;;20.11;44.59;101480.36;105397;1297;61985;-83
2022/05/09 01:21:37;;;;;;;;;;;;;;;20.11;44.64;101479.48;105352;1299;72833;-87
2022/05/09 01:24:13;;;;;;;;;;;;;;;20.11;44.59;101477.16;105340;1299;76435;-86
2022/05/09 01:26:53;;;;;;;;;;;;;;;20.10;44.64;101477.54;105420;1298;62005;-82
2022/05/09 01:29:26;;;;;;;;;;;;;;;20.10;44.69;101476.66;105407;1299;62064;-84
2022/05/09 01:32:24;;;;;;;;;;;;;;;;;;;;;
2022/05/09 01:35:13;;;;;;;;;;;;;;;20.10;44.62;101474.17;105344;1299;76363;-82
2022/05/09 01:37:52;;;;;;;;;;;;;;;20.10;44.64;101475.27;105415;1297;62570;-82
2022/05/09 01:40:20;;;;;;;;;;;;;;;20.10;44.74;101474.70;105409;1299;62074;-84
2022/05/09 01:42:53;;;;;;;;;;;;;;;20.10;44.51;101473.66;105380;1299;72146;-83
2022/05/09 01:45:28;;;;;;;;;;;;;;;20.10;44.65;101474.73;105327;1297;75696;-84
2022/05/09 01:51:18;;;;;;;;;;;;;;;20.09;44.58;101474.05;104810;1305;62166;-84
2022/05/09 01:54:17;;;;;;;;;;;;;;;20.09;44.56;101471.38;104870;1305;72684;-83
2022/05/09 01:56:49;;;;;;;;;;;;;;;20.09;44.64;101469.79;104738;1305;74766;-81
2022/05/09 01:59:31;;;;;;;;;;;;;;;20.08;44.50;101469.27;104912;1305;62200;-84
2022/05/09 02:02:10;;;;;;;;;;;;;;;20.09;44.69;101472.46;104911;1304;61995;-79
2022/05/09 02:04:43;;;;;;;;;;;;;;;20.08;44.40;101474.48;104912;1305;72611;-87
2022/05/09 02:07:19;;;;;;;;;;;;;;;20.08;44.58;101474.27;104857;1305;77039;-82
2022/05/09 02:09:51;;;;;;;;;;;;;;;20.08;44.57;101473.05;104863;1305;62098;-82
2022/05/09 02:12:19;;;;;;;;;;;;;;;20.08;44.72;101474.98;104885;1304;62157;-85
2022/05/09 02:15:22;;;;;;;;;;;;;;;20.08;44.51;101475.75;104750;1305;72810;-82
2022/05/09 02:18:08;;;;;;;;;;;;;;;20.08;44.52;101480.56;104667;1305;75430;-83
2022/05/09 02:21:00;;;;;;;;;;;;;;;20.07;44.49;101478.63;104759;1305;62207;-84
2022/05/09 02:23:35;;;;;;;;;;;;;;;20.08;44.56;101480.77;104429;1311;62201;-87
2022/05/09 02:26:29;;;;;;;;;;;;;;;20.08;44.57;101480.05;104411;1311;73905;-82
2022/05/09 02:29:31;;;;;;;;;;;;;;;20.08;44.53;101482.17;104587;1306;75661;-85
2022/05/09 02:32:10;;;;;;;;;;;;;;;20.08;44.38;101484.69;104741;1306;62057;-83
2022/05/09 02:34:41;;;;;;;;;;;;;;;20.07;44.61;101486.30;104670;1306;61970;-84
2022/05/09 02:37:18;;;;;;;;;;;;;;;20.08;44.74;101486.83;104632;1306;72912;-87
2022/05/09 02:39:48;;;;;;;;;;;;;;;20.08;44.40;101488.27;104692;1306;75700;-87
2022/05/09 02:42:47;;;;;;;;;;;;;;;20.08;44.61;101492.73;104658;1307;62143;-85
2022/05/09 02:45:50;;;;;;;;;;;;;;;20.08;44.64;101489.54;104706;1306;62039;-80
2022/05/09 02:48:37;;;;;;;;;;;;;;;20.07;44.45;101490.23;104720;1306;74075;-84
2022/05/09 02:51:13;;;;;;;;;;;;;;;20.07;44.62;101485.27;104560;1308;75768;-86
2022/05/09 02:54:01;;;;;;;;;;;;;;;20.07;44.66;101485.09;104615;1308;62076;-83
2022/05/09 02:56:38;;;;;;;;;;;;;;;20.07;44.60;101489.56;104518;1310;61977;-80
2022/05/09 02:59:36;;;;;;;;;;;;;;;20.07;44.57;101490.98;104432;1311;72708;-83
2022/05/09 03:02:21;;;;;;;;;;;;;;;20.07;44.51;101490.98;104452;1309;76637;-80
2022/05/09 03:05:16;;;;;;;;;;;;;;;20.07;44.61;101496.89;104434;1309;62064;-83
2022/05/09 03:07:55;;;;;;;;;;;;;;;20.07;44.54;101495.65;104278;1313;62254;-83
2022/05/09 03:10:52;;;;;;;;;;;;;;;;;;;;;
2022/05/09 03:13:21;;;;;;;;;;;;;;;20.06;44.76;101492.25;104293;1314;75642;-86
2022/05/09 03:15:58;;;;;;;;;;;;;;;20.06;44.73;101499.41;104219;1315;62521;-83
2022/05/09 03:18:35;;;;;;;;;;;;;;;20.07;44.60;101492.80;104295;1314;62216;-84
2022/05/09 03:21:30;;;;;;;;;;;;;;;20.06;44.59;101494.39;104229;1314;72814;-84
2022/05/09 03:24:08;;;;;;;;;;;;;;;20.07;44.61;101496.69;104225;1315;74470;-85
2022/05/09 03:26:47;;;;;;;;;;;;;;;20.07;44.77;101498.48;104254;1315;62226;-82
2022/05/09 03:29:19;;;;;;;;;;;;;;;20.07;44.62;101502.76;104247;1314;62098;-84
2022/05/09 03:32:22;;;;;;;;;;;;;;;20.07;44.71;101508.11;104300;1314;72752;-82
2022/05/09 03:34:51;;;;;;;;;;;;;;;20.08;44.62;101508.98;104498;1309;75272;-84
2022/05/09 03:37:30;;;;;;;;;;;;;;;;;;;;;
2022/05/09 03:40:17;;;;;;;;;;;;;;;20.08;44.43;101514.49;104564;1306;62136;-82
2022/05/09 03:42:44;;;;;;;;;;;;;;;20.08;44.53;101513.76;104621;1306;72963;-87
2022/05/09 03:45:26;;;;;;;;;;;;;;;20.09;44.67;101517.33;104939;1302;75581;-82
2022/05/09 03:47:54;;;;;;;;;;;;;;;20.09;44.48;101519.99;105093;1299;61986;-79
2022/05/09 03:50:19;;;;;;;;;;;;;;;20.09;44.24;101517.48;105225;1299;62018;-83
2022/05/09 03:52:50;;;;;;;;;;;;;;;20.09;44.37;101518.02;105212;1300;62545;-81
2022/05/09 03:55:18;;;;;;;;;;;;;;;20.10;44.48;101521.20;105221;1299;75833;-84
2022/05/09 03:57:53;;;;;;;;;;;;;;;20.10;44.44;101523.88;105234;1299;61937;-83
2022/05/09 04:00:44;;;;;;;;;;;;;;;20.09;44.43;101524.07;105204;1299;61973;-82
2022/05/09 04:03:13;;;;;;;;;;;;;;;20.10;44.55;101524.58;104643;1305;72963;-83
2022/05/09 04:05:38;;;;;;;;;;;;;;;20.10;44.27;101524.41;104596;1305;75595;-82
2022/05/09 04:08:08;;;;;;;;;;;;;;;20.08;44.32;101524.14;104519;1305;62097;-84
2022/05/09 04:10:48;;;;;;;;;;;;;;;20.05;44.25;101526.45;104664;1304;62048;-85
2022/05/09 04:13:22;;;;;;;;;;;;;;;20.04;44.37;101527.80;104770;1305;72565;-82
2022/05/09 04:18:59;;;;;;;;;;;;;;;19.98;44.15;101528.43;104766;1304;61978;-85
2022/05/09 04:21:44;;;;;;;;;;;;;;;19.97;44.13;101529.26;104567;1306;62006;-83
2022/05/09 04:24:24;;;;;;;;;;;;;;;19.95;44.26;101528.82;104810;1305;73899;-83
2022/05/09 04:26:53;;;;;;;;;;;;;;;19.93;44.15;101529.63;104764;1305;76626;-82
2022/05/09 04:29:20;;;;;;;;;;;;;;;19.91;43.81;101536.66;104770;1305;62051;-83
2022/05/09 04:31:45;;;;;;;;;;;;;;;19.90;43.91;101536.95;104625;1305;61888;-82
2022/05/09 04:34:11;;;;;;;;;;;;;;;19.88;43.95;101538.47;104616;1306;62066;-81
2022/05/09 04:36:39;;;;;;;;;;;;;;;19.86;43.88;101539.29;104567;1306;77306;-82
2022/05/09 04:39:05;;;;;;;;;;;;;;;19.85;43.83;101541.50;104728;1304;62166;-82
2022/05/09 04:41:44;;;;;;;;;;;;;;;19.84;43.85;101538.52;104961;1300;62154;-85
2022/05/09 04:44:15;;;;;;;;;;;;;;;19.83;43.66;101539.50;105126;1298;72687;-82
2022/05/09 04:46:42;;;;;;;;;;;;;;;19.82;43.69;101542.55;105158;1299;76591;-90
2022/05/09 04:49:08;;;;;;;;;;;;;;;19.81;43.77;101545.47;105040;1299;61986;-84
2022/05/09 04:51:33;;;;;;;;;;;;;;;19.81;43.52;101545.30;105144;1299;62184;-81
2022/05/09 04:53:59;;;;;;;;;;;;;;;19.80;43.44;101548.16;104904;1299;61950;-81
2022/05/09 04:56:24;;;;;;;;;;;;;;;19.80;43.50;101551.39;105016;1300;62080;-82
2022/05/09 04:58:50;;;;;;;;;;;;;;;19.80;43.40;101550.69;105035;1299;60326;-82
2022/05/09 05:01:15;;;;;;;;;;;;;;;19.75;43.30;101557.34;105147;1299;60722;-80
2022/05/09 05:03:42;;;;;;;;;;;;;;;19.74;43.24;101554.55;105078;1299;62148;-80
2022/05/09 05:06:07;;;;;;;;;;;;;;;19.73;43.22;101552.13;105111;1299;62150;-82
2022/05/09 05:08:34;;;;;;;;;;;;;;;19.70;43.20;101556.90;104976;1299;62078;-81
2022/05/09 05:11:00;;;;;;;;;;;;;;;19.68;43.25;101556.11;105028;1299;62126;-81
2022/05/09 05:13:26;;;;;;;;;;;;;;;19.67;43.14;101554.77;105195;1299;60787;-82
2022/05/09 05:15:52;;;;;;;;;;;;;;;19.67;43.05;101555.81;105246;1299;61731;-81
2022/05/09 05:18:21;;;;;;;;;;;;;;;19.68;43.11;101555.77;105145;1299;60332;-82
2022/05/09 05:20:47;;;;;;;;;;;;;;;19.69;43.24;101554.27;105346;1297;60646;-81
2022/05/09 05:23:12;;;;;;;;;;;;;;;19.70;43.16;101554.22;105134;1297;62119;-81
2022/05/09 05:25:40;;;;;;;;;;;;;;;19.71;43.08;101553.09;105285;1297;62039;-81
2022/05/09 05:28:07;;;;;;;;;;;;;;;19.72;43.13;101557.85;105281;1297;60849;-81
2022/05/09 05:30:32;;;;;;;;;;;;;;;19.73;42.98;101556.55;105229;1297;61350;-81
2022/05/09 05:32:58;;;;;;;;;;;;;;;19.74;42.90;101562.42;104802;1299;62872;-82
2022/05/09 05:35:24;;;;;;;;;;;;;;;19.70;42.99;101561.74;104717;1297;62785;-80
2022/05/09 05:37:50;;;;;;;;;;;;;;;19.66;42.91;101564.11;104734;1297;62110;-81
2022/05/09 05:40:21;;;;;;;;;;;;;;;19.66;42.97;101569.11;104836;1299;61969;-82
2022/05/09 05:42:48;;;;;;;;;;;;;;;19.67;42.84;101568.32;104858;1297;62043;-81
2022/05/09 05:45:14;;;;;;;;;;;;;;;19.68;43.02;101568.95;104836;1297;73976;-81
2022/05/09 05:47:39;;;;;;;;;;;;;;;19.68;42.89;101569.37;104878;1297;62432;-81
2022/05/09 05:50:13;;;;;;;;;;;;;;;19.67;42.79;101571.35;104588;1299;62102;-81
2022/05/09 05:52:38;;;;;;;;;;;;;;;19.65;42.66;101572.37;104387;1297;62196;-81
2022/05/09 05:55:04;;;;;;;;;;;;;;;19.55;42.35;101573.06;104356;1299;62127;-80
2022/05/09 05:57:33;;;;;;;;;;;;;;;19.39;42.24;101571.22;104411;1297;62203;-82
2022/05/09 06:00:04;;;;;;;;;;;;;;;19.18;42.16;101575.48;104510;1297;64256;-81
2022/05/09 06:02:30;;;;;;;;;;;;;;;19.05;42.35;101575.79;104711;1297;61936;-81
2022/05/09 06:04:56;;;;;;;;;;;;;;;18.99;42.47;101574.30;105163;1296;60378;-81
2022/05/09 06:07:25;;;;;;;;;;;;;;;18.96;42.38;101581.10;105130;1299;61135;-80
2022/05/09 06:09:51;;;;;;;;;;;;;;;18.96;42.47;101581.07;105057;1297;62213;-81
2022/05/09 06:12:19;;;;;;;;;;;;;;;19.02;42.61;101585.04;105196;1297;61619;-81
2022/05/09 06:15:24;;;;;;;;;;;;;;;19.11;42.69;101585.17;105160;1297;74023;-80
2022/05/09 06:17:30;;;;;;;;;;;;;;;19.19;42.80;101587.57;105142;1297;75649;-81
2022/05/09 06:19:56;;;;;;;;;;;;;;;19.27;42.80;101590.20;105149;1299;60213;-80
2022/05/09 06:22:25;;;;;;;;;;;;;;;19.32;42.81;101587.61;104995;1297;62103;-82
2022/05/09 06:24:57;;;;;;;;;;;;;;;19.38;42.91;101588.93;105155;1297;72673;-84
2022/05/09 06:27:22;;;;;;;;;;;;;;;19.42;43.00;101589.61;105075;1297;75431;-81
2022/05/09 06:29:47;;;;;;;;;;;;;;;19.45;42.61;101588.41;105148;1297;60635;-81
2022/05/09 06:32:13;;;;;;;;;;;;;;;19.44;42.79;101590.23;105015;1297;62157;-81
2022/05/09 06:34:38;;;;;;;;;;;;;;;19.41;42.68;101591.80;105176;1297;60292;-81
2022/05/09 06:37:04;;;;;;;;;;;;;;;19.42;42.75;101594.25;105305;1297;62062;-81
2022/05/09 06:39:29;;;;;;;;;;;;;;;19.47;42.58;101597.24;105152;1297;62213;-81
2022/05/09 06:41:55;;;;;;;;;;;;;;;19.51;42.73;101592.92;105286;1296;62868;-81
2022/05/09 06:44:21;;;;;;;;;;;;;;;19.55;42.64;101594.52;105186;1297;62172;-81
2022/05/09 06:46:46;;;;;;;;;;;;;;;19.59;42.50;101595.71;105325;1297;62098;-82
2022/05/09 06:49:12;;;;;;;;;;;;;;;19.62;42.74;101596.59;105581;1297;62421;-79
2022/05/09 06:51:38;;;;;;;;;;;;;;;19.66;42.78;101592.47;104956;1299;75761;-80
2022/05/09 06:54:05;;;;;;;;;;;;;;;19.69;42.43;101591.25;101878;1297;4125361;-81
2022/05/09 06:56:31;;;;;;;;;;;;;;;19.70;42.50;101591.70;105948;1297;59853;-81
2022/05/09 06:58:56;;;;;;;;;;;;;;;19.71;42.47;101590.82;105741;1299;60886;-81
2022/05/09 07:01:22;;;;;;;;;;;;;;;19.72;42.30;101591.96;105831;1297;60835;-81
2022/05/09 07:03:47;;;;;;;;;;;;;;;19.64;42.09;101587.05;105754;1297;60644;-81
2022/05/09 07:06:16;;;;;;;;;;;;;;;19.64;42.07;101591.90;105111;1299;62088;-81
2022/05/09 07:08:42;;;;;;;;;;;;;;;19.65;42.00;101589.84;105246;1297;59956;-81
2022/05/09 07:11:08;;;;;;;;;;;;;;;19.67;41.89;101590.98;105104;1297;60962;-81
2022/05/09 07:13:34;;;;;;;;;;;;;;;19.70;41.78;101592.09;105157;1298;62216;-82
2022/05/09 07:16:00;;;;;;;;;;;;;;;19.73;41.76;101597.30;105117;1299;60560;-80
2022/05/09 07:18:29;;;;;;;;;;;;;;;19.68;41.31;101595.62;104995;1297;61919;-82
2022/05/09 07:20:55;;;;;;;;;;;;;;;19.60;41.10;101601.20;105003;1299;62123;-82
2022/05/09 07:23:21;;;;;;;;;;;;;;;19.48;40.79;101603.23;105218;1297;62508;-81
2022/05/09 07:25:48;;;;;;;;;;;;;;;19.45;40.64;101598.39;105178;1297;62101;-81
2022/05/09 07:28:18;;;;;;;;;;;;;;;19.49;40.75;101594.05;105119;1299;62095;-82
2022/05/09 07:30:44;;;;;;;;;;;;;;;19.53;40.45;101598.00;105186;1297;73939;-82
2022/05/09 07:33:16;;;;;;;;;;;;;;;19.46;39.88;101596.20;105192;1297;60528;-81
2022/05/09 07:35:43;;;;;;;;;;;;;;;19.43;39.96;101594.71;105185;1299;61327;-82
2022/05/09 07:38:08;;;;;;;;;;;;;;;19.42;39.53;101597.66;105860;1299;60758;-82
2022/05/09 07:40:34;;;;;;;;;;;;;;;19.41;39.65;101597.51;105185;1299;62123;-81
2022/05/09 07:42:59;;;;;;;;;;;;;;;19.45;39.53;101595.90;105160;1299;62259;-82
2022/05/09 07:45:25;;;;;;;;;;;;;;;19.43;39.25;101599.02;105131;1297;60744;-81
2022/05/09 07:47:50;;;;;;;;;;;;;;;19.43;38.81;101597.92;105146;1299;62097;-81
2022/05/09 07:50:16;;;;;;;;;;;;;;;19.45;38.71;101596.80;105072;1297;62622;-82
2022/05/09 07:52:42;;;;;;;;;;;;;;;19.48;38.73;101596.43;105096;1297;60538;-81
2022/05/09 07:55:09;;;;;;;;;;;;;;;19.54;38.55;101595.42;104835;1297;60569;-80
2022/05/09 07:57:34;;;;;;;;;;;;;;;19.57;38.45;101593.28;105062;1298;62136;-80
2022/05/09 07:59:59;;;;;;;;;;;;;;;19.58;38.01;101593.23;104976;1299;60762;-81
2022/05/09 08:02:25;;;;;;;;;;;;;;;19.58;37.76;101596.83;104867;1297;60375;-81
2022/05/09 08:04:51;;;;;;;;;;;;;;;19.54;37.52;101595.79;105256;1297;62075;-81
2022/05/09 08:07:18;;;;;;;;;;;;;;;19.52;37.38;101595.88;105093;1299;75577;-81
2022/05/09 08:09:44;;;;;;;;;;;;;;;19.53;37.39;101595.50;105180;1297;62157;-82
2022/05/09 08:12:10;;;;;;;;;;;;;;;19.48;37.04;101596.98;105108;1299;60884;-82
2022/05/09 08:14:35;;;;;;;;;;;;;;;19.43;36.89;101596.16;105228;1297;62440;-82
2022/05/09 08:17:02;;;;;;;;;;;;;;;19.42;36.90;101598.90;105233;1297;61979;-81
2022/05/09 08:19:31;;;;;;;;;;;;;;;19.46;36.82;101600.13;105362;1298;62362;-80
2022/05/09 08:21:57;;;;;;;;;;;;;;;19.52;36.89;101602.33;105186;1299;63487;-81
2022/05/09 08:24:24;;;;;;;;;;;;;;;19.55;36.80;101604.98;105255;1298;60486;-81
2022/05/09 08:26:50;;;;;;;;;;;;;;;19.58;36.79;101602.34;105860;1299;59974;-82
2022/05/09 08:29:17;;;;;;;;;;;;;;;19.62;36.85;101601.07;105161;1297;62051;-80
2022/05/09 08:31:42;;;;;;;;;;;;;;;19.67;36.66;101602.99;105069;1299;61291;-81
2022/05/09 08:34:09;;;;;;;;;;;;;;;19.70;36.70;101597.27;105173;1299;61944;-82
2022/05/09 08:36:48;;;;;;;;;;;;;;;19.71;36.65;101597.20;105112;1298;62098;-82
2022/05/09 08:39:14;;;;;;;;;;;;;;;19.70;36.38;101599.23;105211;1297;62399;-82
2022/05/09 08:41:45;;;;;;;;;;;;;;;19.67;36.25;101596.88;105273;1297;62085;-81
2022/05/09 08:44:20;;;;;;;;;;;;;;;19.70;36.10;101595.32;105178;1299;74303;-80
2022/05/09 08:47:05;;;;;;;;;;;;;;;19.72;36.24;101598.41;105122;1297;75592;-80
2022/05/09 08:49:31;;;;;;;;;;;;;;;19.74;36.34;101596.33;105231;1299;62177;-80
2022/05/09 08:52:03;;;;;;;;;;;;;;;19.79;36.21;101601.61;105175;1297;60763;-81
2022/05/09 08:54:29;;;;;;;;;;;;;;;19.84;36.36;101598.17;105126;1299;72551;-81
2022/05/09 08:57:03;;;;;;;;;;;;;;;19.87;36.19;101604.27;105247;1297;76238;-80
2022/05/09 08:59:32;;;;;;;;;;;;;;;19.89;36.06;101598.08;105144;1295;60229;-80
2022/05/09 09:02:06;;;;;;;;;;;;;;;19.91;36.08;101595.27;105886;1298;61458;-81
2022/05/09 09:04:32;;;;;;;;;;;;;;;19.93;36.22;101601.59;105876;1297;71976;-81
2022/05/09 09:07:03;;;;;;;;;;;;;;;19.93;35.95;101600.36;105758;1299;60676;-80
2022/05/09 09:09:49;;;;;;;;;;;;;;;19.96;36.11;101600.23;105107;1298;60566;-81
2022/05/09 09:12:26;;;;;;;;;;;;;;;19.97;36.11;101595.67;105163;1299;62090;-82
2022/05/09 09:15:02;;;;;;;;;;;;;;;19.97;35.86;101600.52;105030;1299;72895;-81
2022/05/09 09:17:37;;;;;;;;;;;;;;;19.91;35.78;101594.02;105131;1299;76544;-82
2022/05/09 09:20:34;;;;;;;;;;;;;;;;;;;;;
2022/05/09 09:23:18;;;;;;;;;;;;;;;19.93;35.53;101594.66;105243;1299;61986;-83
2022/05/09 09:26:02;;;;;;;;;;;;;;;19.93;35.69;101596.25;105231;1299;73199;-81
2022/05/09 09:28:47;;;;;;;;;;;;;;;19.93;35.61;101594.64;104952;1298;76111;-84
2022/05/09 09:31:14;;;;;;;;;;;;;;;19.94;35.36;101592.10;105192;1299;61941;-82
2022/05/09 09:33:40;;;;;;;;;;;;;;;19.93;35.35;101585.73;105819;1299;61146;-82
2022/05/09 09:36:08;;;;;;;;;;;;;;;19.95;35.49;101588.84;105979;1299;75483;-81
2022/05/09 09:38:40;;;;;;;;;;;;;;;19.98;35.56;101586.03;105201;1299;76322;-81
2022/05/09 09:41:27;;;;;;;;;;;;;;;19.97;35.53;101584.60;105484;1298;62100;-82
2022/05/09 09:44:15;;;;;;;;;;;;;;;20.00;35.57;101582.52;105297;1298;61360;-81
2022/05/09 09:47:00;;;;;;;;;;;;;;;20.00;35.53;101582.11;105287;1298;73816;-82
2022/05/09 09:49:40;;;;;;;;;;;;;;;19.99;35.36;101583.09;105094;1299;76817;-81
2022/05/09 09:52:45;;;;;;;;;;;;;;;19.98;34.80;101584.76;105068;1299;62908;-81
2022/05/09 09:55:29;;;;;;;;;;;;;;;19.95;34.33;101579.71;104202;1305;60475;-82
2022/05/09 09:57:56;;;;;;;;;;;;;;;19.94;33.93;101577.81;104348;1305;74052;-82
2022/05/09 10:00:31;;;;;;;;;;;;;;;19.96;33.69;101581.65;104377;1305;62660;-82
2022/05/09 10:03:14;;;;;;;;;;;;;;;19.97;33.55;101579.59;104545;1305;62532;-81
2022/05/09 10:05:39;;;;;;;;;;;;;;;19.97;33.55;101576.58;104481;1305;60611;-81
2022/05/09 10:08:37;;;;;;;;;;;;;;;19.99;33.72;101584.14;104646;1305;62105;-81
2022/05/09 10:11:05;;;;;;;;;;;;;;;20.01;33.66;101574.05;104292;1311;77231;-81
2022/05/09 10:13:49;;;;;;;;;;;;;;;20.03;33.82;101574.44;103849;1310;61037;-80
2022/05/09 10:16:14;;;;;;;;;;;;;;;20.06;33.78;101577.15;103780;1311;62145;-80
2022/05/09 10:18:43;;;;;;;;;;;;;;;20.08;33.91;101574.20;104294;1311;60794;-81
2022/05/09 10:21:16;;;;;;;;;;;;;;;20.10;33.92;101568.89;104335;1310;75566;-81
2022/05/09 10:26:31;;;;;;;;;;;;;;;20.15;34.26;101570.08;104454;1305;62075;-81
2022/05/09 10:28:57;;;;;;;;;;;;;;;20.16;34.43;101567.31;104568;1304;62094;-82
2022/05/09 10:31:27;;;;;;;;;;;;;;;20.17;34.14;101562.05;104549;1304;62180;-80
2022/05/09 10:34:01;;;;;;;;;;;;;;;20.18;34.36;101565.98;104445;1305;62042;-84
2022/05/09 10:36:56;;;;;;;;;;;;;;;20.18;34.36;101559.69;104498;1305;62068;-80
2022/05/09 10:39:26;;;;;;;;;;;;;;;20.19;34.33;101560.52;103882;1313;73871;-81
2022/05/09 10:41:55;;;;;;;;;;;;;;;20.20;34.33;101558.17;103884;1313;76403;-81
2022/05/09 10:44:28;;;;;;;;;;;;;;;20.19;34.08;101559.67;103887;1313;62197;-81
2022/05/09 10:46:58;;;;;;;;;;;;;;;20.17;34.09;101557.77;103757;1308;63273;-80
2022/05/09 10:49:27;;;;;;;;;;;;;;;20.17;33.80;101552.94;105126;1307;72805;-81
2022/05/09 10:51:56;;;;;;;;;;;;;;;20.20;34.07;101555.13;104931;1305;76508;-82
2022/05/09 10:54:24;;;;;;;;;;;;;;;20.24;34.05;101552.20;104972;1306;60403;-82
2022/05/09 10:56:52;;;;;;;;;;;;;;;20.28;34.07;101548.95;104993;1305;60960;-80
2022/05/09 10:59:17;;;;;;;;;;;;;;;20.31;34.00;101549.17;104948;1308;74811;-81
2022/05/09 11:01:44;;;;;;;;;;;;;;;20.31;33.80;101550.05;105050;1305;60177;-81
2022/05/09 11:04:10;;;;;;;;;;;;;;;20.32;33.59;101546.42;105104;1308;60238;-81
2022/05/09 11:06:53;;;;;;;;;;;;;;;20.32;33.24;101546.79;105102;1306;60185;-81
2022/05/09 11:09:57;;;;;;;;;;;;;;;20.32;33.20;101549.81;105138;1307;71643;-81
2022/05/09 11:12:42;;;;;;;;;;;;;;;20.32;33.18;101549.63;104918;1310;76934;-81
2022/05/09 11:15:14;;;;;;;;;;;;;;;20.34;33.30;101550.58;104822;1305;60761;-81
2022/05/09 11:17:51;;;;;;;;;;;;;;;20.36;33.51;101544.77;105565;1303;61382;-81
2022/05/09 11:20:16;;;;;;;;;;;;;;;20.38;33.51;101548.38;105546;1302;72954;-82
2022/05/09 11:23:08;;;;;;;;;;;;;;;20.39;33.51;101540.47;105260;1305;60530;-80
2022/05/09 11:25:53;;;;;;;;;;;;;;;20.41;33.48;101541.61;104222;1303;62123;-83
2022/05/09 11:28:24;;;;;;;;;;;;;;;20.40;33.39;101537.73;104747;1305;62124;-82
2022/05/09 11:31:01;;;;;;;;;;;;;;;20.38;32.70;101535.91;104674;1303;75382;-82
2022/05/09 11:33:45;;;;;;;;;;;;;;;20.34;32.46;101537.17;104602;1305;77533;-82
2022/05/09 11:36:37;;;;;;;;;;;;;;;20.33;32.18;101537.64;104714;1303;62130;-83
2022/05/09 11:39:11;;;;;;;;;;;;;;;20.31;31.94;101532.34;104713;1303;62059;-83
2022/05/09 11:41:48;;;;;;;;;;;;;;;20.32;32.09;101532.49;104568;1303;72771;-83
2022/05/09 11:44:13;;;;;;;;;;;;;;;20.33;32.45;101529.21;105044;1299;76816;-81
2022/05/09 11:46:43;;;;;;;;;;;;;;;20.33;32.29;101529.03;104990;1299;61141;-82
2022/05/09 11:49:28;;;;;;;;;;;;;;;20.34;32.46;101527.54;105112;1298;61875;-83
2022/05/09 11:51:57;;;;;;;;;;;;;;;20.34;32.42;101521.66;105154;1299;72883;-83
2022/05/09 11:54:33;;;;;;;;;;;;;;;20.35;32.35;101524.05;105182;1298;77633;-82
2022/05/09 11:57:03;;;;;;;;;;;;;;;20.35;32.25;101524.77;105217;1299;60540;-82
2022/05/09 11:59:31;;;;;;;;;;;;;;;20.34;31.93;101518.95;105219;1299;60431;-81
2022/05/09 12:02:09;;;;;;;;;;;;;;;20.33;31.61;101515.07;105249;1298;72912;-81
2022/05/09 12:04:35;;;;;;;;;;;;;;;20.33;31.74;101510.79;106019;1298;75806;-80
2022/05/09 12:07:19;;;;;;;;;;;;;;;20.32;31.58;101507.79;106035;1298;59283;-80
2022/05/09 12:09:54;;;;;;;;;;;;;;;20.31;31.31;101506.64;105990;1298;60477;-81
2022/05/09 12:12:49;;;;;;;;;;;;;;;20.29;31.00;101503.14;106045;1299;73001;-80
2022/05/09 12:15:15;;;;;;;;;;;;;;;20.31;31.36;101502.86;105802;1302;75415;-81
2022/05/09 12:17:44;;;;;;;;;;;;;;;20.34;31.69;101501.98;105391;1302;62294;-81
2022/05/09 12:20:39;;;;;;;;;;;;;;;20.38;32.30;101503.51;104749;1302;63248;-80
2022/05/09 12:23:06;;;;;;;;;;;;;;;20.41;32.25;101495.32;104436;1307;72895;-81
2022/05/09 12:25:41;;;;;;;;;;;;;;;20.42;32.39;101494.39;104321;1308;62113;-81
2022/05/09 12:28:23;;;;;;;;;;;;;;;20.43;32.22;101488.60;104478;1308;64352;-81
2022/05/09 12:30:51;;;;;;;;;;;;;;;20.42;32.30;101482.16;104453;1309;62102;-80
2022/05/09 12:33:25;;;;;;;;;;;;;;;20.43;32.53;101477.11;104407;1308;72905;-81
2022/05/09 12:35:52;;;;;;;;;;;;;;;20.44;32.62;101476.17;104488;1306;75655;-82
2022/05/09 12:38:24;;;;;;;;;;;;;;;20.46;32.84;101473.79;104433;1308;61863;-82
2022/05/09 12:40:56;;;;;;;;;;;;;;;20.45;32.78;101468.96;104358;1308;62136;-86
2022/05/09 12:43:24;;;;;;;;;;;;;;;20.45;32.77;101469.54;104476;1308;72745;-82
2022/05/09 12:45:53;;;;;;;;;;;;;;;20.43;32.82;101468.36;104525;1309;76201;-82
2022/05/09 12:48:47;;;;;;;;;;;;;;;20.42;32.73;101465.20;104490;1308;62251;-81
2022/05/09 12:51:13;;;;;;;;;;;;;;;20.40;32.52;101462.30;103878;1314;62271;-83
2022/05/09 12:53:39;;;;;;;;;;;;;;;20.38;32.31;101459.00;104176;1311;62119;-81
2022/05/09 12:56:12;;;;;;;;;;;;;;;20.38;32.17;101455.81;104136;1311;62084;-81
2022/05/09 12:58:39;;;;;;;;;;;;;;;20.38;32.07;101455.11;104207;1311;62205;-81
2022/05/09 13:01:11;;;;;;;;;;;;;;;20.38;32.36;101452.21;104553;1305;61839;-81
2022/05/09 13:03:47;;;;;;;;;;;;;;;20.39;32.33;101451.95;104634;1304;72946;-79
2022/05/09 13:06:16;;;;;;;;;;;;;;;20.41;32.51;101448.65;104648;1305;75510;-81
2022/05/09 13:08:42;;;;;;;;;;;;;;;20.41;32.51;101445.23;104655;1304;62022;-81
2022/05/09 13:11:14;;;;;;;;;;;;;;;20.43;32.56;101441.36;104598;1305;61075;-81
2022/05/09 13:13:39;;;;;;;;;;;;;;;20.45;32.84;101438.77;104696;1305;72594;-82
2022/05/09 13:16:25;;;;;;;;;;;;;;;20.47;32.88;101433.66;104646;1305;62059;-81